sensor_id;sensor_type;location;lat;lon;timestamp;P1;durP1;ratioP1;P2;durP2;ratioP2
13415;SDS011;6779;50.150;8.680;2023-04-24T00:02:22;1.97;;;1.13;;
13415;SDS011;6779;50.150;8.680;2023-04-24T00:04:48;1.60;;;1.30;;
13415;SDS011;6779;50.150;8.680;2023-04-24T00:07:14;3.63;;;1.40;;
13415;SDS011;6779;50.150;8.680;2023-04-24T00:09:42;2.87;;;1.40;;
13415;SDS011;6779;50.150;8.680;2023-04-24T00:12:08;1.30;;;1.20;;
13415;SDS011;6779;50.150;8.680;2023-04-24T00:14:33;3.47;;;1.43;;
13415;SDS011;6779;50.150;8.680;2023-04-24T00:17:00;2.47;;;1.77;;
13415;SDS011;6779;50.150;8.680;2023-04-24T00:19:25;3.10;;;1.80;;
13415;SDS011;6779;50.150;8.680;2023-04-24T00:21:50;3.43;;;1.60;;
13415;SDS011;6779;50.150;8.680;2023-04-24T00:24:16;1.33;;;1.23;;
13415;SDS011;6779;50.150;8.680;2023-04-24T00:26:42;3.07;;;1.60;;
13415;SDS011;6779;50.150;8.680;2023-04-24T00:29:07;1.40;;;1.30;;
13415;SDS011;6779;50.150;8.680;2023-04-24T00:31:33;8.13;;;1.73;;
13415;SDS011;6779;50.150;8.680;2023-04-24T00:34:01;1.70;;;1.60;;
13415;SDS011;6779;50.150;8.680;2023-04-24T00:36:27;3.53;;;1.50;;
13415;SDS011;6779;50.150;8.680;2023-04-24T00:38:53;2.27;;;1.73;;
13415;SDS011;6779;50.150;8.680;2023-04-24T00:41:18;3.03;;;1.77;;
13415;SDS011;6779;50.150;8.680;2023-04-24T00:43:44;2.63;;;1.77;;
13415;SDS011;6779;50.150;8.680;2023-04-24T00:46:09;2.93;;;1.80;;
13415;SDS011;6779;50.150;8.680;2023-04-24T00:48:36;5.80;;;1.60;;
13415;SDS011;6779;50.150;8.680;2023-04-24T00:51:02;2.77;;;2.27;;
13415;SDS011;6779;50.150;8.680;2023-04-24T00:53:28;1.93;;;1.40;;
13415;SDS011;6779;50.150;8.680;2023-04-24T00:55:53;2.10;;;1.67;;
13415;SDS011;6779;50.150;8.680;2023-04-24T00:58:18;4.27;;;1.77;;
13415;SDS011;6779;50.150;8.680;2023-04-24T01:00:44;3.20;;;1.63;;
13415;SDS011;6779;50.150;8.680;2023-04-24T01:03:10;1.70;;;1.57;;
13415;SDS011;6779;50.150;8.680;2023-04-24T01:05:35;5.67;;;1.77;;
13415;SDS011;6779;50.150;8.680;2023-04-24T01:08:01;2.80;;;1.60;;
13415;SDS011;6779;50.150;8.680;2023-04-24T01:10:26;3.07;;;1.57;;
13415;SDS011;6779;50.150;8.680;2023-04-24T01:12:52;1.80;;;1.60;;
13415;SDS011;6779;50.150;8.680;2023-04-24T01:15:18;3.77;;;1.70;;
13415;SDS011;6779;50.150;8.680;2023-04-24T01:17:43;3.33;;;1.80;;
13415;SDS011;6779;50.150;8.680;2023-04-24T01:20:08;2.43;;;1.60;;
13415;SDS011;6779;50.150;8.680;2023-04-24T01:22:34;3.97;;;1.40;;
13415;SDS011;6779;50.150;8.680;2023-04-24T01:24:59;2.47;;;1.37;;
13415;SDS011;6779;50.150;8.680;2023-04-24T01:27:25;2.90;;;1.77;;
13415;SDS011;6779;50.150;8.680;2023-04-24T01:29:50;3.27;;;1.57;;
13415;SDS011;6779;50.150;8.680;2023-04-24T01:32:17;2.90;;;1.60;;
13415;SDS011;6779;50.150;8.680;2023-04-24T01:34:43;3.40;;;1.50;;
13415;SDS011;6779;50.150;8.680;2023-04-24T01:37:09;2.03;;;1.53;;
13415;SDS011;6779;50.150;8.680;2023-04-24T01:39:34;1.70;;;1.20;;
13415;SDS011;6779;50.150;8.680;2023-04-24T01:41:59;4.07;;;1.40;;
13415;SDS011;6779;50.150;8.680;2023-04-24T01:44:27;1.87;;;1.30;;
13415;SDS011;6779;50.150;8.680;2023-04-24T01:46:52;4.50;;;1.40;;
13415;SDS011;6779;50.150;8.680;2023-04-24T01:49:19;3.70;;;1.33;;
13415;SDS011;6779;50.150;8.680;2023-04-24T01:51:44;2.53;;;1.53;;
13415;SDS011;6779;50.150;8.680;2023-04-24T01:54:10;2.30;;;1.40;;
13415;SDS011;6779;50.150;8.680;2023-04-24T01:56:35;1.47;;;1.30;;
13415;SDS011;6779;50.150;8.680;2023-04-24T01:59:02;2.37;;;1.40;;
13415;SDS011;6779;50.150;8.680;2023-04-24T02:01:32;3.23;;;1.47;;
13415;SDS011;6779;50.150;8.680;2023-04-24T02:03:58;2.60;;;1.60;;
13415;SDS011;6779;50.150;8.680;2023-04-24T02:06:24;3.37;;;1.40;;
13415;SDS011;6779;50.150;8.680;2023-04-24T02:08:49;2.03;;;1.57;;
13415;SDS011;6779;50.150;8.680;2023-04-24T02:11:15;5.20;;;1.53;;
13415;SDS011;6779;50.150;8.680;2023-04-24T02:13:40;2.23;;;1.30;;
13415;SDS011;6779;50.150;8.680;2023-04-24T02:16:05;2.80;;;1.73;;
13415;SDS011;6779;50.150;8.680;2023-04-24T02:18:30;1.83;;;1.63;;
13415;SDS011;6779;50.150;8.680;2023-04-24T02:20:56;2.10;;;1.60;;
13415;SDS011;6779;50.150;8.680;2023-04-24T02:23:21;2.40;;;1.53;;
13415;SDS011;6779;50.150;8.680;2023-04-24T02:25:46;4.57;;;2.00;;
13415;SDS011;6779;50.150;8.680;2023-04-24T02:28:12;2.23;;;1.57;;
13415;SDS011;6779;50.150;8.680;2023-04-24T02:30:37;2.87;;;2.17;;
13415;SDS011;6779;50.150;8.680;2023-04-24T02:33:03;3.70;;;1.50;;
13415;SDS011;6779;50.150;8.680;2023-04-24T02:35:28;1.90;;;1.50;;
13415;SDS011;6779;50.150;8.680;2023-04-24T02:37:53;3.30;;;1.50;;
13415;SDS011;6779;50.150;8.680;2023-04-24T02:40:19;4.10;;;1.70;;
13415;SDS011;6779;50.150;8.680;2023-04-24T02:42:44;2.90;;;1.90;;
13415;SDS011;6779;50.150;8.680;2023-04-24T02:45:09;1.53;;;1.43;;
13415;SDS011;6779;50.150;8.680;2023-04-24T02:47:35;3.90;;;1.40;;
13415;SDS011;6779;50.150;8.680;2023-04-24T02:50:01;1.30;;;1.20;;
13415;SDS011;6779;50.150;8.680;2023-04-24T02:52:27;2.20;;;1.63;;
13415;SDS011;6779;50.150;8.680;2023-04-24T02:54:53;2.23;;;1.20;;
13415;SDS011;6779;50.150;8.680;2023-04-24T02:57:18;1.73;;;1.40;;
13415;SDS011;6779;50.150;8.680;2023-04-24T02:59:44;1.67;;;1.50;;
13415;SDS011;6779;50.150;8.680;2023-04-24T03:02:09;1.70;;;1.40;;
13415;SDS011;6779;50.150;8.680;2023-04-24T03:04:34;1.57;;;1.40;;
13415;SDS011;6779;50.150;8.680;2023-04-24T03:07:00;2.90;;;1.50;;
13415;SDS011;6779;50.150;8.680;2023-04-24T03:09:26;2.60;;;1.60;;
13415;SDS011;6779;50.150;8.680;2023-04-24T03:11:51;4.63;;;1.50;;
13415;SDS011;6779;50.150;8.680;2023-04-24T03:14:16;3.07;;;1.47;;
13415;SDS011;6779;50.150;8.680;2023-04-24T03:16:42;3.17;;;1.50;;
13415;SDS011;6779;50.150;8.680;2023-04-24T03:19:07;1.63;;;1.30;;
13415;SDS011;6779;50.150;8.680;2023-04-24T03:21:32;4.73;;;1.77;;
13415;SDS011;6779;50.150;8.680;2023-04-24T03:23:58;4.57;;;1.43;;
13415;SDS011;6779;50.150;8.680;2023-04-24T03:26:23;3.13;;;1.50;;
13415;SDS011;6779;50.150;8.680;2023-04-24T03:28:48;2.80;;;1.67;;
13415;SDS011;6779;50.150;8.680;2023-04-24T03:31:14;2.70;;;1.10;;
13415;SDS011;6779;50.150;8.680;2023-04-24T03:33:40;4.13;;;1.30;;
13415;SDS011;6779;50.150;8.680;2023-04-24T03:36:05;1.73;;;1.50;;
13415;SDS011;6779;50.150;8.680;2023-04-24T03:38:31;1.60;;;1.40;;
13415;SDS011;6779;50.150;8.680;2023-04-24T03:40:56;1.73;;;1.40;;
13415;SDS011;6779;50.150;8.680;2023-04-24T03:43:22;2.90;;;1.43;;
13415;SDS011;6779;50.150;8.680;2023-04-24T03:45:47;2.47;;;1.50;;
13415;SDS011;6779;50.150;8.680;2023-04-24T03:48:12;2.07;;;1.30;;
13415;SDS011;6779;50.150;8.680;2023-04-24T03:50:38;2.40;;;1.37;;
13415;SDS011;6779;50.150;8.680;2023-04-24T03:53:03;1.30;;;1.20;;
13415;SDS011;6779;50.150;8.680;2023-04-24T03:55:28;3.97;;;1.60;;
13415;SDS011;6779;50.150;8.680;2023-04-24T03:57:53;4.13;;;1.27;;
13415;SDS011;6779;50.150;8.680;2023-04-24T04:00:19;1.87;;;1.47;;
13415;SDS011;6779;50.150;8.680;2023-04-24T04:02:45;2.00;;;1.30;;
13415;SDS011;6779;50.150;8.680;2023-04-24T04:05:11;1.30;;;1.20;;
13415;SDS011;6779;50.150;8.680;2023-04-24T04:07:36;3.53;;;1.53;;
13415;SDS011;6779;50.150;8.680;2023-04-24T04:10:01;1.40;;;1.30;;
13415;SDS011;6779;50.150;8.680;2023-04-24T04:12:27;1.93;;;1.70;;
13415;SDS011;6779;50.150;8.680;2023-04-24T04:14:52;2.10;;;1.50;;
13415;SDS011;6779;50.150;8.680;2023-04-24T04:17:17;1.93;;;1.50;;
13415;SDS011;6779;50.150;8.680;2023-04-24T04:19:43;2.97;;;1.77;;
13415;SDS011;6779;50.150;8.680;2023-04-24T04:22:08;2.10;;;1.80;;
13415;SDS011;6779;50.150;8.680;2023-04-24T04:24:33;3.67;;;1.60;;
13415;SDS011;6779;50.150;8.680;2023-04-24T04:27:02;2.20;;;1.53;;
13415;SDS011;6779;50.150;8.680;2023-04-24T04:29:29;2.00;;;1.57;;
13415;SDS011;6779;50.150;8.680;2023-04-24T04:31:56;1.87;;;1.67;;
13415;SDS011;6779;50.150;8.680;2023-04-24T04:34:21;4.73;;;1.83;;
13415;SDS011;6779;50.150;8.680;2023-04-24T04:36:47;1.80;;;1.67;;
13415;SDS011;6779;50.150;8.680;2023-04-24T04:39:13;1.57;;;1.47;;
13415;SDS011;6779;50.150;8.680;2023-04-24T04:41:40;2.93;;;2.07;;
13415;SDS011;6779;50.150;8.680;2023-04-24T04:44:05;2.90;;;1.77;;
13415;SDS011;6779;50.150;8.680;2023-04-24T04:46:31;2.00;;;1.80;;
13415;SDS011;6779;50.150;8.680;2023-04-24T04:49:02;2.47;;;1.87;;
13415;SDS011;6779;50.150;8.680;2023-04-24T04:51:27;2.73;;;1.90;;
13415;SDS011;6779;50.150;8.680;2023-04-24T04:53:53;2.30;;;1.77;;
13415;SDS011;6779;50.150;8.680;2023-04-24T04:56:18;2.73;;;1.60;;
13415;SDS011;6779;50.150;8.680;2023-04-24T04:58:44;1.97;;;1.77;;
13415;SDS011;6779;50.150;8.680;2023-04-24T05:01:09;2.33;;;1.93;;
13415;SDS011;6779;50.150;8.680;2023-04-24T05:03:34;2.23;;;1.83;;
13415;SDS011;6779;50.150;8.680;2023-04-24T05:06:00;2.20;;;2.00;;
13415;SDS011;6779;50.150;8.680;2023-04-24T05:08:26;2.40;;;2.20;;
13415;SDS011;6779;50.150;8.680;2023-04-24T05:10:51;4.47;;;2.23;;
13415;SDS011;6779;50.150;8.680;2023-04-24T05:13:17;2.17;;;1.90;;
13415;SDS011;6779;50.150;8.680;2023-04-24T05:15:42;2.03;;;1.80;;
13415;SDS011;6779;50.150;8.680;2023-04-24T05:18:07;2.20;;;2.00;;
13415;SDS011;6779;50.150;8.680;2023-04-24T05:20:32;2.27;;;1.97;;
13415;SDS011;6779;50.150;8.680;2023-04-24T05:22:58;3.10;;;2.60;;
13415;SDS011;6779;50.150;8.680;2023-04-24T05:25:23;2.37;;;2.13;;
13415;SDS011;6779;50.150;8.680;2023-04-24T05:27:48;2.57;;;2.00;;
13415;SDS011;6779;50.150;8.680;2023-04-24T05:30:14;4.70;;;2.57;;
13415;SDS011;6779;50.150;8.680;2023-04-24T05:32:39;3.27;;;2.70;;
13415;SDS011;6779;50.150;8.680;2023-04-24T05:35:04;4.57;;;2.50;;
13415;SDS011;6779;50.150;8.680;2023-04-24T05:37:30;5.50;;;2.67;;
13415;SDS011;6779;50.150;8.680;2023-04-24T05:39:55;2.50;;;2.27;;
13415;SDS011;6779;50.150;8.680;2023-04-24T05:42:21;3.10;;;2.80;;
13415;SDS011;6779;50.150;8.680;2023-04-24T05:44:46;4.70;;;2.43;;
13415;SDS011;6779;50.150;8.680;2023-04-24T05:47:12;2.90;;;2.37;;
13415;SDS011;6779;50.150;8.680;2023-04-24T05:49:37;3.63;;;2.97;;
13415;SDS011;6779;50.150;8.680;2023-04-24T05:52:02;3.07;;;2.77;;
13415;SDS011;6779;50.150;8.680;2023-04-24T05:54:29;3.07;;;2.77;;
13415;SDS011;6779;50.150;8.680;2023-04-24T05:56:54;5.40;;;3.00;;
13415;SDS011;6779;50.150;8.680;2023-04-24T05:59:20;5.47;;;3.07;;
13415;SDS011;6779;50.150;8.680;2023-04-24T06:01:46;5.17;;;3.30;;
13415;SDS011;6779;50.150;8.680;2023-04-24T06:04:11;3.87;;;3.23;;
13415;SDS011;6779;50.150;8.680;2023-04-24T06:06:38;5.10;;;2.70;;
13415;SDS011;6779;50.150;8.680;2023-04-24T06:09:03;4.53;;;2.70;;
13415;SDS011;6779;50.150;8.680;2023-04-24T06:11:29;3.83;;;2.87;;
13415;SDS011;6779;50.150;8.680;2023-04-24T06:13:54;3.80;;;2.70;;
13415;SDS011;6779;50.150;8.680;2023-04-24T06:16:19;4.10;;;3.13;;
13415;SDS011;6779;50.150;8.680;2023-04-24T06:18:45;3.00;;;2.70;;
13415;SDS011;6779;50.150;8.680;2023-04-24T06:21:12;3.93;;;3.20;;
13415;SDS011;6779;50.150;8.680;2023-04-24T06:23:37;3.00;;;2.70;;
13415;SDS011;6779;50.150;8.680;2023-04-24T06:26:02;4.47;;;2.70;;
13415;SDS011;6779;50.150;8.680;2023-04-24T06:28:27;5.00;;;2.90;;
13415;SDS011;6779;50.150;8.680;2023-04-24T06:30:53;4.17;;;3.03;;
13415;SDS011;6779;50.150;8.680;2023-04-24T06:33:18;3.07;;;2.73;;
13415;SDS011;6779;50.150;8.680;2023-04-24T06:35:43;4.17;;;3.00;;
13415;SDS011;6779;50.150;8.680;2023-04-24T06:38:09;3.77;;;3.27;;
13415;SDS011;6779;50.150;8.680;2023-04-24T06:40:34;4.40;;;3.50;;
13415;SDS011;6779;50.150;8.680;2023-04-24T06:42:59;6.03;;;4.40;;
13415;SDS011;6779;50.150;8.680;2023-04-24T06:45:27;3.53;;;3.20;;
13415;SDS011;6779;50.150;8.680;2023-04-24T06:47:52;4.07;;;3.30;;
13415;SDS011;6779;50.150;8.680;2023-04-24T06:50:18;4.67;;;3.67;;
13415;SDS011;6779;50.150;8.680;2023-04-24T06:52:43;6.57;;;4.13;;
13415;SDS011;6779;50.150;8.680;2023-04-24T06:55:09;6.07;;;3.93;;
13415;SDS011;6779;50.150;8.680;2023-04-24T06:57:36;4.00;;;3.70;;
13415;SDS011;6779;50.150;8.680;2023-04-24T07:00:01;4.97;;;4.10;;
13415;SDS011;6779;50.150;8.680;2023-04-24T07:02:28;5.67;;;3.73;;
13415;SDS011;6779;50.150;8.680;2023-04-24T07:04:53;4.83;;;3.70;;
13415;SDS011;6779;50.150;8.680;2023-04-24T07:07:18;6.50;;;3.60;;
13415;SDS011;6779;50.150;8.680;2023-04-24T07:09:44;4.73;;;3.90;;
13415;SDS011;6779;50.150;8.680;2023-04-24T07:12:10;5.97;;;3.60;;
13415;SDS011;6779;50.150;8.680;2023-04-24T07:14:36;5.30;;;3.73;;
13415;SDS011;6779;50.150;8.680;2023-04-24T07:17:03;3.93;;;3.63;;
13415;SDS011;6779;50.150;8.680;2023-04-24T07:19:29;4.37;;;3.57;;
13415;SDS011;6779;50.150;8.680;2023-04-24T07:21:54;4.37;;;3.60;;
13415;SDS011;6779;50.150;8.680;2023-04-24T07:24:20;5.27;;;3.73;;
13415;SDS011;6779;50.150;8.680;2023-04-24T07:26:45;5.77;;;3.30;;
13415;SDS011;6779;50.150;8.680;2023-04-24T07:29:11;3.73;;;3.40;;
13415;SDS011;6779;50.150;8.680;2023-04-24T07:31:37;4.53;;;3.10;;
13415;SDS011;6779;50.150;8.680;2023-04-24T07:34:02;4.30;;;3.93;;
13415;SDS011;6779;50.150;8.680;2023-04-24T07:36:27;4.20;;;3.70;;
13415;SDS011;6779;50.150;8.680;2023-04-24T07:38:53;5.10;;;4.20;;
13415;SDS011;6779;50.150;8.680;2023-04-24T07:41:19;3.93;;;3.63;;
13415;SDS011;6779;50.150;8.680;2023-04-24T07:43:45;4.63;;;3.90;;
13415;SDS011;6779;50.150;8.680;2023-04-24T07:46:10;4.00;;;3.47;;
13415;SDS011;6779;50.150;8.680;2023-04-24T07:48:36;4.30;;;3.43;;
13415;SDS011;6779;50.150;8.680;2023-04-24T07:51:01;3.70;;;3.40;;
13415;SDS011;6779;50.150;8.680;2023-04-24T07:53:27;4.27;;;3.57;;
13415;SDS011;6779;50.150;8.680;2023-04-24T07:55:52;4.87;;;3.40;;
13415;SDS011;6779;50.150;8.680;2023-04-24T07:58:19;3.70;;;3.23;;
13415;SDS011;6779;50.150;8.680;2023-04-24T08:00:45;4.07;;;3.27;;
13415;SDS011;6779;50.150;8.680;2023-04-24T08:03:10;5.80;;;3.67;;
13415;SDS011;6779;50.150;8.680;2023-04-24T08:05:37;3.80;;;3.23;;
13415;SDS011;6779;50.150;8.680;2023-04-24T08:08:02;4.23;;;3.83;;
13415;SDS011;6779;50.150;8.680;2023-04-24T08:10:28;3.97;;;3.43;;
13415;SDS011;6779;50.150;8.680;2023-04-24T08:12:53;6.23;;;3.37;;
13415;SDS011;6779;50.150;8.680;2023-04-24T08:15:20;3.00;;;2.70;;
13415;SDS011;6779;50.150;8.680;2023-04-24T08:17:46;3.57;;;3.00;;
13415;SDS011;6779;50.150;8.680;2023-04-24T08:20:11;3.93;;;3.57;;
13415;SDS011;6779;50.150;8.680;2023-04-24T08:22:41;3.60;;;3.30;;
13415;SDS011;6779;50.150;8.680;2023-04-24T08:25:07;4.60;;;3.00;;
13415;SDS011;6779;50.150;8.680;2023-04-24T08:27:33;5.53;;;3.73;;
13415;SDS011;6779;50.150;8.680;2023-04-24T08:29:58;4.90;;;3.57;;
13415;SDS011;6779;50.150;8.680;2023-04-24T08:32:24;4.30;;;3.30;;
13415;SDS011;6779;50.150;8.680;2023-04-24T08:34:52;5.27;;;3.53;;
13415;SDS011;6779;50.150;8.680;2023-04-24T08:37:18;5.43;;;3.77;;
13415;SDS011;6779;50.150;8.680;2023-04-24T08:39:43;4.10;;;3.30;;
13415;SDS011;6779;50.150;8.680;2023-04-24T08:42:08;4.17;;;3.10;;
13415;SDS011;6779;50.150;8.680;2023-04-24T08:44:34;3.70;;;3.40;;
13415;SDS011;6779;50.150;8.680;2023-04-24T08:47:03;3.43;;;2.90;;
13415;SDS011;6779;50.150;8.680;2023-04-24T08:49:30;5.07;;;3.03;;
13415;SDS011;6779;50.150;8.680;2023-04-24T08:51:56;4.67;;;3.60;;
13415;SDS011;6779;50.150;8.680;2023-04-24T08:54:21;4.37;;;3.20;;
13415;SDS011;6779;50.150;8.680;2023-04-24T08:56:47;5.23;;;3.40;;
13415;SDS011;6779;50.150;8.680;2023-04-24T08:59:13;4.20;;;2.83;;
13415;SDS011;6779;50.150;8.680;2023-04-24T09:01:39;4.00;;;3.50;;
13415;SDS011;6779;50.150;8.680;2023-04-24T09:04:05;4.90;;;3.00;;
13415;SDS011;6779;50.150;8.680;2023-04-24T09:06:32;4.67;;;3.17;;
13415;SDS011;6779;50.150;8.680;2023-04-24T09:08:59;4.13;;;3.10;;
13415;SDS011;6779;50.150;8.680;2023-04-24T09:11:25;3.60;;;3.30;;
13415;SDS011;6779;50.150;8.680;2023-04-24T09:13:51;3.40;;;3.10;;
13415;SDS011;6779;50.150;8.680;2023-04-24T09:16:17;4.77;;;3.37;;
13415;SDS011;6779;50.150;8.680;2023-04-24T09:18:43;3.60;;;2.67;;
13415;SDS011;6779;50.150;8.680;2023-04-24T09:21:09;3.30;;;3.00;;
13415;SDS011;6779;50.150;8.680;2023-04-24T09:23:35;3.83;;;3.17;;
13415;SDS011;6779;50.150;8.680;2023-04-24T09:26:01;5.03;;;3.30;;
13415;SDS011;6779;50.150;8.680;2023-04-24T09:28:31;4.90;;;3.10;;
13415;SDS011;6779;50.150;8.680;2023-04-24T09:31:04;8.17;;;3.43;;
13415;SDS011;6779;50.150;8.680;2023-04-24T09:33:53;4.43;;;2.90;;
13415;SDS011;6779;50.150;8.680;2023-04-24T09:36:19;3.30;;;2.70;;
13415;SDS011;6779;50.150;8.680;2023-04-24T09:38:53;3.40;;;3.03;;
13415;SDS011;6779;50.150;8.680;2023-04-24T09:41:22;5.00;;;3.23;;
13415;SDS011;6779;50.150;8.680;2023-04-24T09:43:48;3.50;;;3.20;;
13415;SDS011;6779;50.150;8.680;2023-04-24T09:46:13;3.07;;;2.80;;
13415;SDS011;6779;50.150;8.680;2023-04-24T09:48:38;3.90;;;3.20;;
13415;SDS011;6779;50.150;8.680;2023-04-24T09:51:04;3.20;;;2.90;;
13415;SDS011;6779;50.150;8.680;2023-04-24T09:53:37;5.80;;;3.33;;
13415;SDS011;6779;50.150;8.680;2023-04-24T09:56:07;3.67;;;2.70;;
13415;SDS011;6779;50.150;8.680;2023-04-24T09:58:34;5.33;;;3.50;;
13415;SDS011;6779;50.150;8.680;2023-04-24T10:01:00;3.30;;;3.00;;
13415;SDS011;6779;50.150;8.680;2023-04-24T10:03:26;3.93;;;3.10;;
13415;SDS011;6779;50.150;8.680;2023-04-24T10:05:54;3.83;;;2.93;;
13415;SDS011;6779;50.150;8.680;2023-04-24T10:08:24;4.47;;;3.03;;
13415;SDS011;6779;50.150;8.680;2023-04-24T10:10:50;2.80;;;2.60;;
13415;SDS011;6779;50.150;8.680;2023-04-24T10:13:15;3.57;;;3.23;;
13415;SDS011;6779;50.150;8.680;2023-04-24T10:15:41;3.50;;;2.90;;
13415;SDS011;6779;50.150;8.680;2023-04-24T10:18:07;3.50;;;2.50;;
13415;SDS011;6779;50.150;8.680;2023-04-24T10:20:33;3.97;;;2.93;;
13415;SDS011;6779;50.150;8.680;2023-04-24T10:23:00;2.97;;;2.37;;
13415;SDS011;6779;50.150;8.680;2023-04-24T10:25:27;4.80;;;2.67;;
13415;SDS011;6779;50.150;8.680;2023-04-24T10:27:57;2.63;;;2.43;;
13415;SDS011;6779;50.150;8.680;2023-04-24T10:30:24;2.73;;;2.17;;
13415;SDS011;6779;50.150;8.680;2023-04-24T10:32:54;2.67;;;2.00;;
13415;SDS011;6779;50.150;8.680;2023-04-24T10:35:20;4.63;;;2.10;;
13415;SDS011;6779;50.150;8.680;2023-04-24T10:38:05;3.40;;;2.50;;
13415;SDS011;6779;50.150;8.680;2023-04-24T10:40:33;3.20;;;2.37;;
13415;SDS011;6779;50.150;8.680;2023-04-24T10:42:59;3.77;;;2.80;;
13415;SDS011;6779;50.150;8.680;2023-04-24T10:45:27;3.50;;;3.20;;
13415;SDS011;6779;50.150;8.680;2023-04-24T10:47:56;3.40;;;3.10;;
13415;SDS011;6779;50.150;8.680;2023-04-24T10:50:34;5.80;;;3.27;;
13415;SDS011;6779;50.150;8.680;2023-04-24T10:53:11;6.83;;;3.93;;
13415;SDS011;6779;50.150;8.680;2023-04-24T10:55:45;5.63;;;3.73;;
13415;SDS011;6779;50.150;8.680;2023-04-24T10:58:11;5.93;;;3.90;;
13415;SDS011;6779;50.150;8.680;2023-04-24T11:00:37;4.43;;;3.50;;
13415;SDS011;6779;50.150;8.680;2023-04-24T11:03:23;4.17;;;3.77;;
13415;SDS011;6779;50.150;8.680;2023-04-24T11:08:23;3.80;;;3.10;;
13415;SDS011;6779;50.150;8.680;2023-04-24T11:10:55;6.53;;;2.90;;
13415;SDS011;6779;50.150;8.680;2023-04-24T11:14:01;4.60;;;3.00;;
13415;SDS011;6779;50.150;8.680;2023-04-24T11:19:02;2.77;;;2.50;;
13415;SDS011;6779;50.150;8.680;2023-04-24T11:21:32;3.40;;;2.40;;
13415;SDS011;6779;50.150;8.680;2023-04-24T11:23:58;2.97;;;2.33;;
13415;SDS011;6779;50.150;8.680;2023-04-24T11:26:23;2.87;;;2.57;;
13415;SDS011;6779;50.150;8.680;2023-04-24T11:29:05;2.70;;;2.40;;
13415;SDS011;6779;50.150;8.680;2023-04-24T11:34:08;2.20;;;1.90;;
13415;SDS011;6779;50.150;8.680;2023-04-24T11:36:35;3.33;;;2.00;;
13415;SDS011;6779;50.150;8.680;2023-04-24T11:39:00;2.00;;;1.80;;
13415;SDS011;6779;50.150;8.680;2023-04-24T11:41:26;2.87;;;2.17;;
13415;SDS011;6779;50.150;8.680;2023-04-24T11:43:52;1.90;;;1.80;;
13415;SDS011;6779;50.150;8.680;2023-04-24T11:46:18;2.50;;;2.30;;
13415;SDS011;6779;50.150;8.680;2023-04-24T11:48:46;2.13;;;1.93;;
13415;SDS011;6779;50.150;8.680;2023-04-24T11:51:12;1.90;;;1.70;;
13415;SDS011;6779;50.150;8.680;2023-04-24T11:53:37;1.97;;;1.87;;
13415;SDS011;6779;50.150;8.680;2023-04-24T11:56:03;2.23;;;2.03;;
13415;SDS011;6779;50.150;8.680;2023-04-24T11:58:34;3.10;;;2.80;;
13415;SDS011;6779;50.150;8.680;2023-04-24T12:01:00;3.13;;;2.83;;
13415;SDS011;6779;50.150;8.680;2023-04-24T12:03:26;5.50;;;2.70;;
13415;SDS011;6779;50.150;8.680;2023-04-24T12:05:51;3.23;;;2.93;;
13415;SDS011;6779;50.150;8.680;2023-04-24T12:08:29;2.50;;;2.30;;
13415;SDS011;6779;50.150;8.680;2023-04-24T12:10:54;3.13;;;2.83;;
13415;SDS011;6779;50.150;8.680;2023-04-24T12:13:19;3.70;;;2.70;;
13415;SDS011;6779;50.150;8.680;2023-04-24T12:15:45;4.17;;;2.97;;
13415;SDS011;6779;50.150;8.680;2023-04-24T12:18:13;2.97;;;2.67;;
13415;SDS011;6779;50.150;8.680;2023-04-24T12:20:40;3.73;;;2.77;;
13415;SDS011;6779;50.150;8.680;2023-04-24T12:23:05;3.77;;;2.73;;
13415;SDS011;6779;50.150;8.680;2023-04-24T12:25:31;2.57;;;1.90;;
13415;SDS011;6779;50.150;8.680;2023-04-24T12:30:28;3.03;;;2.30;;
13415;SDS011;6779;50.150;8.680;2023-04-24T12:32:56;3.47;;;2.53;;
13415;SDS011;6779;50.150;8.680;2023-04-24T12:35:23;2.97;;;2.33;;
13415;SDS011;6779;50.150;8.680;2023-04-24T12:37:49;3.60;;;2.43;;
13415;SDS011;6779;50.150;8.680;2023-04-24T12:40:15;4.57;;;2.70;;
13415;SDS011;6779;50.150;8.680;2023-04-24T12:42:42;3.13;;;2.50;;
13415;SDS011;6779;50.150;8.680;2023-04-24T12:45:08;4.00;;;2.80;;
13415;SDS011;6779;50.150;8.680;2023-04-24T12:47:34;5.57;;;3.40;;
13415;SDS011;6779;50.150;8.680;2023-04-24T12:49:59;3.10;;;2.80;;
13415;SDS011;6779;50.150;8.680;2023-04-24T12:52:26;5.37;;;3.73;;
13415;SDS011;6779;50.150;8.680;2023-04-24T12:54:52;4.60;;;3.33;;
13415;SDS011;6779;50.150;8.680;2023-04-24T12:57:19;3.77;;;3.40;;
13415;SDS011;6779;50.150;8.680;2023-04-24T12:59:45;4.73;;;3.60;;
13415;SDS011;6779;50.150;8.680;2023-04-24T13:02:10;4.80;;;3.50;;
13415;SDS011;6779;50.150;8.680;2023-04-24T13:04:36;4.83;;;3.97;;
13415;SDS011;6779;50.150;8.680;2023-04-24T13:07:01;4.57;;;3.57;;
13415;SDS011;6779;50.150;8.680;2023-04-24T13:09:27;6.37;;;3.53;;
13415;SDS011;6779;50.150;8.680;2023-04-24T13:11:52;3.93;;;3.53;;
13415;SDS011;6779;50.150;8.680;2023-04-24T13:14:17;5.67;;;4.00;;
13415;SDS011;6779;50.150;8.680;2023-04-24T13:16:43;4.70;;;3.80;;
13415;SDS011;6779;50.150;8.680;2023-04-24T13:19:08;7.03;;;3.40;;
13415;SDS011;6779;50.150;8.680;2023-04-24T13:21:33;4.37;;;3.50;;
13415;SDS011;6779;50.150;8.680;2023-04-24T13:23:58;8.27;;;3.93;;
13415;SDS011;6779;50.150;8.680;2023-04-24T13:26:24;6.77;;;4.37;;
13415;SDS011;6779;50.150;8.680;2023-04-24T13:28:50;3.53;;;3.20;;
13415;SDS011;6779;50.150;8.680;2023-04-24T13:31:15;5.37;;;3.73;;
13415;SDS011;6779;50.150;8.680;2023-04-24T13:33:41;5.40;;;3.43;;
13415;SDS011;6779;50.150;8.680;2023-04-24T13:36:06;4.33;;;3.47;;
13415;SDS011;6779;50.150;8.680;2023-04-24T13:38:31;4.80;;;3.77;;
13415;SDS011;6779;50.150;8.680;2023-04-24T13:40:57;5.40;;;4.10;;
13415;SDS011;6779;50.150;8.680;2023-04-24T13:43:22;7.70;;;4.43;;
13415;SDS011;6779;50.150;8.680;2023-04-24T13:45:47;9.10;;;4.83;;
13415;SDS011;6779;50.150;8.680;2023-04-24T13:48:13;7.90;;;5.60;;
13415;SDS011;6779;50.150;8.680;2023-04-24T13:50:40;6.47;;;5.00;;
13415;SDS011;6779;50.150;8.680;2023-04-24T13:53:06;7.23;;;5.00;;
13415;SDS011;6779;50.150;8.680;2023-04-24T13:55:31;6.07;;;4.63;;
13415;SDS011;6779;50.150;8.680;2023-04-24T13:57:57;7.03;;;5.03;;
13415;SDS011;6779;50.150;8.680;2023-04-24T14:00:22;8.03;;;4.80;;
13415;SDS011;6779;50.150;8.680;2023-04-24T14:02:47;5.87;;;4.53;;
13415;SDS011;6779;50.150;8.680;2023-04-24T14:05:13;4.30;;;3.87;;
13415;SDS011;6779;50.150;8.680;2023-04-24T14:07:40;6.33;;;4.87;;
13415;SDS011;6779;50.150;8.680;2023-04-24T14:10:05;5.57;;;4.33;;
13415;SDS011;6779;50.150;8.680;2023-04-24T14:12:31;6.20;;;4.30;;
13415;SDS011;6779;50.150;8.680;2023-04-24T14:14:57;5.30;;;4.67;;
13415;SDS011;6779;50.150;8.680;2023-04-24T14:17:22;5.57;;;3.93;;
13415;SDS011;6779;50.150;8.680;2023-04-24T14:19:47;5.73;;;4.27;;
13415;SDS011;6779;50.150;8.680;2023-04-24T14:22:13;6.57;;;4.53;;
13415;SDS011;6779;50.150;8.680;2023-04-24T14:24:38;5.23;;;3.83;;
13415;SDS011;6779;50.150;8.680;2023-04-24T14:27:03;6.27;;;3.60;;
13415;SDS011;6779;50.150;8.680;2023-04-24T14:29:29;4.47;;;3.87;;
13415;SDS011;6779;50.150;8.680;2023-04-24T14:31:54;5.53;;;3.77;;
13415;SDS011;6779;50.150;8.680;2023-04-24T14:34:19;5.37;;;3.53;;
13415;SDS011;6779;50.150;8.680;2023-04-24T14:36:45;6.40;;;3.60;;
13415;SDS011;6779;50.150;8.680;2023-04-24T14:39:10;5.93;;;3.90;;
13415;SDS011;6779;50.150;8.680;2023-04-24T14:41:35;5.30;;;3.67;;
13415;SDS011;6779;50.150;8.680;2023-04-24T14:44:02;4.50;;;3.33;;
13415;SDS011;6779;50.150;8.680;2023-04-24T14:46:28;5.20;;;3.57;;
13415;SDS011;6779;50.150;8.680;2023-04-24T14:48:55;5.17;;;3.53;;
13415;SDS011;6779;50.150;8.680;2023-04-24T14:51:21;5.40;;;4.20;;
13415;SDS011;6779;50.150;8.680;2023-04-24T14:53:46;5.53;;;3.80;;
13415;SDS011;6779;50.150;8.680;2023-04-24T14:56:12;7.23;;;3.90;;
13415;SDS011;6779;50.150;8.680;2023-04-24T14:58:38;5.97;;;4.20;;
13415;SDS011;6779;50.150;8.680;2023-04-24T15:01:03;5.00;;;3.53;;
13415;SDS011;6779;50.150;8.680;2023-04-24T15:03:29;4.90;;;4.03;;
13415;SDS011;6779;50.150;8.680;2023-04-24T15:05:54;5.43;;;3.67;;